createdAt,value
2019-02-11T00:00:41.307Z,99.90
2019-02-11T00:03:09.870Z,99.90
2019-02-11T00:05:38.434Z,99.90
2019-02-11T00:08:07.086Z,99.90
2019-02-11T00:10:35.659Z,99.90
2019-02-11T00:13:10.473Z,99.90
2019-02-11T00:15:36.135Z,99.90
2019-02-11T00:18:07.613Z,99.90
2019-02-11T00:20:36.190Z,99.90
2019-02-11T00:23:04.746Z,99.90
2019-02-11T00:25:33.619Z,99.90
2019-02-11T00:28:02.176Z,99.90
2019-02-11T00:30:30.723Z,99.90
2019-02-11T00:33:00.136Z,99.90
2019-02-11T00:35:28.811Z,99.90
2019-02-11T00:37:57.376Z,99.90
2019-02-11T00:40:26.212Z,99.90
2019-02-11T00:42:54.784Z,99.90
2019-02-11T00:45:23.340Z,99.90
2019-02-11T00:47:52.475Z,99.90
2019-02-11T00:50:21.024Z,99.90
2019-02-11T00:52:50.387Z,99.90
2019-02-11T00:55:18.929Z,99.90
2019-02-11T00:57:47.555Z,99.90
2019-02-11T01:00:16.192Z,99.90
2019-02-11T01:02:44.741Z,99.90
2019-02-11T01:05:13.707Z,99.90
2019-02-11T01:07:43.802Z,99.90
2019-02-11T01:10:12.619Z,99.90
2019-02-11T01:12:41.444Z,99.90
2019-02-11T01:15:12.931Z,99.90
2019-02-11T01:17:41.483Z,99.90
2019-02-11T01:20:12.068Z,99.90
2019-02-11T01:22:41.844Z,99.90
2019-02-11T01:25:10.582Z,99.90
2019-02-11T01:27:39.157Z,99.90
2019-02-11T01:30:11.309Z,99.90
2019-02-11T01:32:39.899Z,99.90
2019-02-11T01:35:08.691Z,99.90
2019-02-11T01:37:37.263Z,99.90
2019-02-11T01:40:08.935Z,99.90
2019-02-11T01:42:37.499Z,99.90
2019-02-11T01:45:09.156Z,99.90
2019-02-11T01:47:37.723Z,99.90
2019-02-11T01:50:09.403Z,99.90
2019-02-11T01:52:37.978Z,99.90
2019-02-11T01:55:06.975Z,99.90
2019-02-11T01:57:35.596Z,99.90
2019-02-11T02:00:06.576Z,99.90
2019-02-11T02:02:35.419Z,99.90
2019-02-11T02:05:04.907Z,99.90
2019-02-11T02:07:33.480Z,99.90
2019-02-11T02:10:02.092Z,99.90
2019-02-11T02:12:30.651Z,99.90
2019-02-11T02:14:59.217Z,99.90
2019-02-11T02:17:27.761Z,99.90
2019-02-11T02:19:56.599Z,99.90
2019-02-11T02:22:25.171Z,99.90
2019-02-11T02:24:53.792Z,99.90
2019-02-11T02:27:22.340Z,99.90
2019-02-11T02:29:50.916Z,99.90
2019-02-11T02:32:19.460Z,99.90
2019-02-11T02:34:48.035Z,99.90
2019-02-11T02:37:16.578Z,99.90
2019-02-11T02:39:45.131Z,99.90
2019-02-11T02:42:15.279Z,99.90
2019-02-11T02:44:43.860Z,99.90
2019-02-11T02:47:12.427Z,99.90
2019-02-11T02:49:40.979Z,99.90
2019-02-11T02:52:09.555Z,99.90
2019-02-11T02:54:38.194Z,99.90
2019-02-11T02:57:06.760Z,99.90
2019-02-11T02:59:35.310Z,99.90
2019-02-11T03:02:04.518Z,99.90
2019-02-11T03:04:33.067Z,99.90
2019-02-11T03:07:01.648Z,99.90
2019-02-11T03:09:30.202Z,99.90
2019-02-11T03:11:58.779Z,99.90
2019-02-11T03:14:27.600Z,99.90
2019-02-11T03:16:56.144Z,99.90
2019-02-11T03:19:25.004Z,99.90
2019-02-11T03:21:53.677Z,99.90
2019-02-11T03:24:22.244Z,99.90
2019-02-11T03:26:50.787Z,99.90
2019-02-11T03:29:19.363Z,99.90
2019-02-11T03:31:49.052Z,99.90
2019-02-11T03:34:17.551Z,99.90
2019-02-11T03:36:47.744Z,99.90
2019-02-11T03:39:16.396Z,99.90
2019-02-11T03:41:44.951Z,99.90
2019-02-11T03:44:15.316Z,99.90
2019-02-11T03:46:44.984Z,99.90
2019-02-11T03:49:13.564Z,99.90
2019-02-11T03:51:42.110Z,99.90
2019-02-11T03:54:11.000Z,99.90
2019-02-11T03:56:39.567Z,99.90
2019-02-11T03:59:08.200Z,99.90
2019-02-11T04:01:36.776Z,99.90
2019-02-11T04:04:09.119Z,99.90
2019-02-11T04:06:37.772Z,99.90
2019-02-11T04:09:07.181Z,99.90
2019-02-11T04:11:35.858Z,99.90
2019-02-11T04:14:04.481Z,99.90
2019-02-11T04:16:33.085Z,99.90
2019-02-11T04:19:01.699Z,99.90
2019-02-11T04:21:31.077Z,99.90
2019-02-11T04:23:59.637Z,99.90
2019-02-11T04:26:29.821Z,99.90
2019-02-11T04:28:59.714Z,99.80
2019-02-11T04:31:28.268Z,99.80
2019-02-11T04:33:58.324Z,99.20
2019-02-11T04:36:26.874Z,99.10
2019-02-11T04:38:55.501Z,99.50
2019-02-11T04:41:24.551Z,98.90
2019-02-11T04:43:53.281Z,98.40
2019-02-11T04:46:21.879Z,98.00
2019-02-11T04:48:50.451Z,98.00
2019-02-11T04:51:19.020Z,97.70
2019-02-11T04:53:47.569Z,97.70
2019-02-11T04:56:18.778Z,97.50
2019-02-11T04:58:47.323Z,97.20
2019-02-11T05:01:15.891Z,96.80
2019-02-11T05:03:44.444Z,97.10
2019-02-11T05:06:14.002Z,97.40
2019-02-11T05:08:42.553Z,97.50
2019-02-11T05:11:11.115Z,97.40
2019-02-11T05:13:40.957Z,96.50
2019-02-11T05:16:09.568Z,96.80
2019-02-11T05:18:38.120Z,96.70
2019-02-11T05:21:06.672Z,96.70
2019-02-11T05:23:36.569Z,96.40
2019-02-11T05:26:05.255Z,96.40
2019-02-11T05:28:33.829Z,96.20
2019-02-11T05:31:02.439Z,96.40
2019-02-11T05:33:31.051Z,96.40
2019-02-11T05:35:59.668Z,96.60
2019-02-11T05:38:28.239Z,96.90
2019-02-11T05:40:58.293Z,96.10
2019-02-11T05:43:26.868Z,97.00
2019-02-11T05:45:55.420Z,96.20
2019-02-11T05:48:24.015Z,95.70
2019-02-11T05:50:52.565Z,95.60
2019-02-11T05:53:21.159Z,95.50
2019-02-11T05:55:49.708Z,95.40
2019-02-11T05:58:18.770Z,95.40
2019-02-11T06:00:47.324Z,95.60
2019-02-11T06:03:15.952Z,95.30
2019-02-11T06:05:44.512Z,94.90
2019-02-11T06:08:13.062Z,95.20
2019-02-11T06:10:41.760Z,94.90
2019-02-11T06:13:10.311Z,94.60
2019-02-11T06:15:39.237Z,94.40
2019-02-11T06:18:07.771Z,94.60
2019-02-11T06:20:36.343Z,94.30
2019-02-11T06:23:05.211Z,94.10
2019-02-11T06:25:34.283Z,94.20
2019-02-11T06:28:02.796Z,94.80
2019-02-11T06:30:36.092Z,93.60
2019-02-11T06:33:06.171Z,93.80
2019-02-11T06:35:34.724Z,94.10
2019-02-11T06:38:03.396Z,94.10
2019-02-11T06:40:31.953Z,94.30
2019-02-11T06:43:01.932Z,94.40
2019-02-11T06:45:30.476Z,93.60
2019-02-11T06:48:01.712Z,93.80
2019-02-11T06:50:30.276Z,94.00
2019-02-11T06:52:59.231Z,94.00
2019-02-11T06:55:28.083Z,93.50
2019-02-11T06:57:56.677Z,93.50
2019-02-11T07:00:25.263Z,93.00
2019-02-11T07:02:53.803Z,92.90
2019-02-11T07:05:22.372Z,92.70
2019-02-11T07:07:50.937Z,93.00
2019-02-11T07:10:19.492Z,93.10
2019-02-11T07:12:48.036Z,93.10
2019-02-11T07:15:22.227Z,93.00
2019-02-11T07:17:46.832Z,93.40
2019-02-11T07:20:15.386Z,93.20
2019-02-11T07:22:44.360Z,93.60
2019-02-11T07:25:13.638Z,93.50
2019-02-11T07:27:43.307Z,93.40
2019-02-11T07:30:14.273Z,93.60
2019-02-11T07:32:42.907Z,93.90
2019-02-11T07:35:11.456Z,93.10
2019-02-11T07:37:40.029Z,93.10
2019-02-11T07:40:11.016Z,93.30
2019-02-11T07:42:41.512Z,93.50
2019-02-11T07:45:12.739Z,93.40
2019-02-11T07:47:41.366Z,93.20
2019-02-11T07:50:10.185Z,93.30
2019-02-11T07:52:40.273Z,93.60
2019-02-11T07:55:10.542Z,93.70
2019-02-11T07:57:39.601Z,93.90
2019-02-11T08:00:10.256Z,93.70
2019-02-11T08:02:39.229Z,94.10
2019-02-11T08:05:07.899Z,94.10
2019-02-11T08:07:37.987Z,94.00
2019-02-11T08:10:08.588Z,94.00
2019-02-11T08:12:37.145Z,93.90
2019-02-11T08:15:08.335Z,94.20
2019-02-11T08:17:36.971Z,94.40
2019-02-11T08:20:10.183Z,94.20
2019-02-11T08:22:38.755Z,94.00
2019-02-11T08:25:07.510Z,93.90
2019-02-11T08:27:36.080Z,93.70
2019-02-11T08:30:10.419Z,93.50
2019-02-11T08:32:39.059Z,94.00
2019-02-11T08:35:09.609Z,93.90
2019-02-11T08:37:38.215Z,93.70
2019-02-11T08:40:09.004Z,93.80
2019-02-11T08:42:39.111Z,93.40
2019-02-11T08:45:10.000Z,93.50
2019-02-11T08:47:38.583Z,93.50
2019-02-11T08:50:08.671Z,93.00
2019-02-11T08:52:37.255Z,92.90
2019-02-11T08:55:07.892Z,93.00
2019-02-11T08:57:36.435Z,92.90
2019-02-11T09:00:12.128Z,93.00
2019-02-11T09:02:40.700Z,93.30
2019-02-11T09:05:09.447Z,93.60
2019-02-11T09:07:38.272Z,93.20
2019-02-11T09:10:11.649Z,92.90
2019-02-11T09:12:40.519Z,92.90
2019-02-11T09:15:11.437Z,92.70
2019-02-11T09:17:40.084Z,92.50
2019-02-11T09:20:12.178Z,92.50
2019-02-11T09:22:40.714Z,92.30
2019-02-11T09:25:10.867Z,92.70
2019-02-11T09:27:39.588Z,92.70
2019-02-11T09:30:12.177Z,92.30
2019-02-11T09:32:42.320Z,92.50
2019-02-11T09:35:11.268Z,92.20
2019-02-11T09:37:39.908Z,92.10
2019-02-11T09:40:13.612Z,91.60
2019-02-11T09:42:42.216Z,92.20
2019-02-11T09:45:13.973Z,92.50
2019-02-11T09:47:42.528Z,92.70
2019-02-11T09:50:18.071Z,91.50
2019-02-11T09:52:47.996Z,91.10
2019-02-11T09:55:22.695Z,91.00
2019-02-11T09:57:51.303Z,90.50
2019-02-11T10:00:21.041Z,90.70
2019-02-11T10:02:49.597Z,90.10
2019-02-11T10:05:18.235Z,89.80
2019-02-11T10:07:46.788Z,90.50
2019-02-11T10:10:15.382Z,90.20
2019-02-11T10:12:43.944Z,90.80
2019-02-11T10:15:14.045Z,90.20
2019-02-11T10:17:42.689Z,90.30
2019-02-11T10:20:15.626Z,90.00
2019-02-11T10:22:44.191Z,89.70
2019-02-11T10:25:18.632Z,89.00
2019-02-11T10:27:48.545Z,88.40
2019-02-11T10:30:17.219Z,89.00
2019-02-11T10:32:45.856Z,88.00
2019-02-11T10:35:15.847Z,87.80
2019-02-11T10:37:44.604Z,86.10
2019-02-11T10:40:15.873Z,86.70
2019-02-11T10:42:44.651Z,85.00
2019-02-11T10:45:14.671Z,82.50
2019-02-11T10:47:44.869Z,81.30
2019-02-11T10:50:16.549Z,81.40
2019-02-11T10:52:45.266Z,80.50
2019-02-11T10:55:21.521Z,81.40
2019-02-11T10:57:51.180Z,82.10
2019-02-11T11:00:26.794Z,81.90
2019-02-11T11:02:55.339Z,81.20
2019-02-11T11:05:25.961Z,81.20
2019-02-11T11:07:54.571Z,82.80
2019-02-11T11:10:28.799Z,82.60
2019-02-11T11:12:59.985Z,81.10
2019-02-11T11:15:29.153Z,80.80
2019-02-11T11:17:58.037Z,81.70
2019-02-11T11:20:27.468Z,80.70
2019-02-11T11:22:56.109Z,80.20
2019-02-11T11:25:24.727Z,80.70
2019-02-11T11:27:53.571Z,78.90
2019-02-11T11:30:22.255Z,79.60
2019-02-11T11:32:51.560Z,78.80
2019-02-11T11:35:20.188Z,79.70
2019-02-11T11:37:51.832Z,83.00
2019-02-11T11:40:21.716Z,81.50
2019-02-11T11:42:50.439Z,78.10
2019-02-11T11:45:20.806Z,77.50
2019-02-11T11:47:49.401Z,77.30
2019-02-11T11:50:19.229Z,77.80
2019-02-11T11:52:47.787Z,78.80
2019-02-11T11:55:19.649Z,79.80
2019-02-11T11:57:48.304Z,80.00
2019-02-11T12:00:19.882Z,81.50
2019-02-11T12:03:00.719Z,81.10
2019-02-11T12:05:19.123Z,81.60
2019-02-11T12:07:47.820Z,81.10
2019-02-11T12:10:16.451Z,82.20
2019-02-11T12:12:45.082Z,81.10
2019-02-11T12:15:16.724Z,80.70
2019-02-11T12:17:46.530Z,80.90
2019-02-11T12:20:16.015Z,80.60
2019-02-11T12:22:44.636Z,81.50
2019-02-11T12:25:15.380Z,80.80
2019-02-11T12:27:43.947Z,81.50
2019-02-11T12:30:24.050Z,79.30
2019-02-11T12:32:54.619Z,79.20
2019-02-11T12:35:23.038Z,79.70
2019-02-11T12:37:51.709Z,80.80
2019-02-11T12:40:20.273Z,80.30
2019-02-11T12:42:52.402Z,79.50
2019-02-11T12:45:21.376Z,80.80
2019-02-11T12:47:50.004Z,82.80
2019-02-11T12:50:20.647Z,84.30
2019-02-11T12:52:49.306Z,83.60
2019-02-11T12:55:18.935Z,83.70
2019-02-11T12:57:47.534Z,83.00
2019-02-11T13:00:18.588Z,83.00
2019-02-11T13:02:47.576Z,82.60
2019-02-11T13:05:16.522Z,82.30
2019-02-11T13:07:46.096Z,81.80
2019-02-11T13:10:18.483Z,78.60
2019-02-11T13:12:47.192Z,78.90
2019-02-11T13:15:41.726Z,80.50
2019-02-11T13:17:47.110Z,81.70
2019-02-11T13:20:17.688Z,84.10
2019-02-11T13:22:46.441Z,83.00
2019-02-11T13:25:18.798Z,84.50
2019-02-11T13:27:47.854Z,85.60
2019-02-11T13:30:23.044Z,87.10
2019-02-11T13:32:51.582Z,89.30
2019-02-11T13:35:20.231Z,90.20
2019-02-11T13:37:49.046Z,90.60
2019-02-11T13:40:17.802Z,91.20
2019-02-11T13:42:46.961Z,90.80
2019-02-11T13:45:20.990Z,89.80
2019-02-11T13:47:57.123Z,88.00
2019-02-11T13:50:27.682Z,87.40
2019-02-11T13:52:56.873Z,87.40
2019-02-11T13:55:30.206Z,86.70
2019-02-11T13:57:57.746Z,86.20
2019-02-11T14:00:31.869Z,85.90
2019-02-11T14:03:03.454Z,86.30
2019-02-11T14:05:34.299Z,86.80
2019-02-11T14:08:03.020Z,85.00
2019-02-11T14:10:31.803Z,84.90
2019-02-11T14:13:00.993Z,85.00
2019-02-11T14:15:29.788Z,84.90
2019-02-11T14:18:14.054Z,84.10
2019-02-11T14:20:40.517Z,84.60
2019-02-11T14:23:09.315Z,85.80
2019-02-11T14:25:43.770Z,85.50
2019-02-11T14:28:08.297Z,85.80
2019-02-11T14:30:37.092Z,87.20
2019-02-11T14:33:05.872Z,86.00
2019-02-11T14:35:34.519Z,87.70
2019-02-11T14:38:03.338Z,88.60
2019-02-11T14:40:31.945Z,87.10
2019-02-11T14:43:00.491Z,84.50
2019-02-11T14:45:30.234Z,84.70
2019-02-11T14:47:58.800Z,84.10
2019-02-11T14:50:27.677Z,83.90
2019-02-11T14:52:56.302Z,82.80
2019-02-11T14:55:24.879Z,82.60
2019-02-11T14:57:53.462Z,82.60
2019-02-11T15:00:23.805Z,83.90
2019-02-11T15:02:53.887Z,82.90
2019-02-11T15:05:22.793Z,83.50
2019-02-11T15:07:51.342Z,83.10
2019-02-11T15:10:19.992Z,84.40
2019-02-11T15:12:48.608Z,84.40
2019-02-11T15:15:17.292Z,85.00
2019-02-11T15:17:46.895Z,81.90
2019-02-11T15:20:19.805Z,82.50
2019-02-11T15:22:48.396Z,81.90
2019-02-11T15:25:18.900Z,82.30
2019-02-11T15:27:47.736Z,82.30
2019-02-11T15:30:18.598Z,82.60
2019-02-11T15:32:47.444Z,83.30
2019-02-11T15:35:18.631Z,82.60
2019-02-11T15:37:47.188Z,80.60
2019-02-11T15:40:19.264Z,80.00
2019-02-11T15:42:49.212Z,79.10
2019-02-11T15:45:19.408Z,80.40
2019-02-11T15:47:49.043Z,80.90
2019-02-11T15:50:18.355Z,81.90
2019-02-11T15:52:47.179Z,82.80
2019-02-11T15:55:19.884Z,89.30
2019-02-11T15:57:49.009Z,91.70
2019-02-11T16:00:20.643Z,85.20
2019-02-11T16:02:51.429Z,81.50
2019-02-11T16:05:21.141Z,77.40
2019-02-11T16:07:52.473Z,77.60
2019-02-11T16:10:26.672Z,77.00
2019-02-11T16:12:55.229Z,78.70
2019-02-11T16:15:24.877Z,77.60
2019-02-11T16:17:53.456Z,78.40
2019-02-11T16:20:22.016Z,81.30
2019-02-11T16:22:50.587Z,84.10
2019-02-11T16:25:19.142Z,83.90
2019-02-11T16:27:47.711Z,85.80
2019-02-11T16:30:18.184Z,86.30
2019-02-11T16:32:47.939Z,87.40
2019-02-11T16:35:17.639Z,88.90
2019-02-11T16:37:46.694Z,89.50
2019-02-11T16:40:24.089Z,89.70
2019-02-11T16:42:52.676Z,90.20
2019-02-11T16:45:21.391Z,90.30
2019-02-11T16:47:50.357Z,90.60
2019-02-11T16:50:18.941Z,90.60
2019-02-11T16:52:47.479Z,90.80
2019-02-11T16:55:16.115Z,91.00
2019-02-11T16:57:44.734Z,90.80
2019-02-11T17:00:20.356Z,90.80
2019-02-11T17:02:48.948Z,91.00
2019-02-11T17:05:17.796Z,91.30
2019-02-11T17:07:47.859Z,91.10
2019-02-11T17:10:17.968Z,91.10
2019-02-11T17:12:49.416Z,90.80
2019-02-11T17:15:21.116Z,90.90
2019-02-11T17:17:49.669Z,91.20
2019-02-11T17:20:18.752Z,91.10
2019-02-11T17:22:47.457Z,91.20
2019-02-11T17:25:16.561Z,91.10
2019-02-11T17:27:45.100Z,91.10
2019-02-11T17:30:19.435Z,91.20
2019-02-11T17:32:47.988Z,91.20
2019-02-11T17:35:16.892Z,91.10
2019-02-11T17:37:47.042Z,91.30
2019-02-11T17:40:16.363Z,91.30
2019-02-11T17:42:44.932Z,91.50
2019-02-11T17:45:22.425Z,91.60
2019-02-11T17:47:51.141Z,91.40
2019-02-11T17:50:19.765Z,91.50
2019-02-11T17:52:49.676Z,91.40
2019-02-11T17:55:18.372Z,91.40
2019-02-11T17:57:46.935Z,91.80
2019-02-11T18:00:23.740Z,91.80
2019-02-11T18:02:52.325Z,91.60
2019-02-11T18:05:20.868Z,91.70
2019-02-11T18:07:49.440Z,91.90
2019-02-11T18:10:19.742Z,91.90
2019-02-11T18:12:48.315Z,92.10
2019-02-11T18:15:16.878Z,92.30
2019-02-11T18:17:45.780Z,92.30
2019-02-11T18:20:14.395Z,92.40
2019-02-11T18:22:44.556Z,92.70
2019-02-11T18:25:13.288Z,92.60
2019-02-11T18:27:41.925Z,92.90
2019-02-11T18:30:19.046Z,93.30
2019-02-11T18:32:48.613Z,93.50
2019-02-11T18:35:22.085Z,93.50
2019-02-11T18:37:50.800Z,93.60
2019-02-11T18:40:19.470Z,94.30
2019-02-11T18:42:48.271Z,94.00
2019-02-11T18:45:19.839Z,94.50
2019-02-11T18:47:48.472Z,94.20
2019-02-11T18:50:17.811Z,94.20
2019-02-11T18:52:46.472Z,94.00
2019-02-11T18:55:19.998Z,94.00
2019-02-11T18:57:48.808Z,94.00
2019-02-11T19:00:19.294Z,94.20
2019-02-11T19:02:48.447Z,94.30
2019-02-11T19:05:17.632Z,94.40
2019-02-11T19:07:46.811Z,94.60
2019-02-11T19:10:17.011Z,94.60
2019-02-11T19:12:46.133Z,94.80
2019-02-11T19:15:16.134Z,94.90
2019-02-11T19:17:44.745Z,94.90
2019-02-11T19:20:17.739Z,94.90
2019-02-11T19:22:46.384Z,94.80
2019-02-11T19:25:15.339Z,94.90
2019-02-11T19:27:44.088Z,95.00
2019-02-11T19:30:18.170Z,94.90
2019-02-11T19:32:46.728Z,95.10
2019-02-11T19:35:15.295Z,95.10
2019-02-11T19:37:43.889Z,95.40
2019-02-11T19:40:22.232Z,96.30
2019-02-11T19:42:50.854Z,95.50
2019-02-11T19:45:23.602Z,95.20
2019-02-11T19:47:52.177Z,95.20
2019-02-11T19:50:20.767Z,94.90
2019-02-11T19:52:49.855Z,95.20
2019-02-11T19:55:18.503Z,95.20
2019-02-11T19:57:48.128Z,95.10
2019-02-11T20:00:21.752Z,96.20
2019-02-11T20:02:51.764Z,94.90
2019-02-11T20:05:20.555Z,94.90
2019-02-11T20:07:49.636Z,95.10
2019-02-11T20:10:21.289Z,95.20
2019-02-11T20:12:49.839Z,95.30
2019-02-11T20:15:29.577Z,95.50
2019-02-11T20:17:58.128Z,95.40
2019-02-11T20:20:26.774Z,95.50
2019-02-11T20:22:55.652Z,95.30
2019-02-11T20:25:24.228Z,95.40
2019-02-11T20:27:53.120Z,95.40
2019-02-11T20:30:29.381Z,96.30
2019-02-11T20:32:57.948Z,95.40
2019-02-11T20:35:26.616Z,95.20
2019-02-11T20:37:58.797Z,95.20
2019-02-11T20:40:30.005Z,95.30
2019-02-11T20:42:58.582Z,95.40
2019-02-11T20:45:28.747Z,95.40
2019-02-11T20:47:57.396Z,95.30
2019-02-11T20:50:26.017Z,95.90
2019-02-11T20:52:54.586Z,95.50
2019-02-11T20:55:23.232Z,95.70
2019-02-11T20:57:54.952Z,95.70
2019-02-11T21:00:25.448Z,95.90
2019-02-11T21:02:54.067Z,96.40
2019-02-11T21:05:23.598Z,96.10
2019-02-11T21:07:53.545Z,96.80
2019-02-11T21:10:26.148Z,97.50
2019-02-11T21:12:54.712Z,98.80
2019-02-11T21:15:23.935Z,99.60
2019-02-11T21:17:52.488Z,99.80
2019-02-11T21:20:30.267Z,99.90
2019-02-11T21:22:58.889Z,99.90
2019-02-11T21:25:27.479Z,99.90
2019-02-11T21:27:56.598Z,99.90
2019-02-11T21:30:25.308Z,99.90
2019-02-11T21:32:55.000Z,99.90
2019-02-11T21:35:24.103Z,99.90
2019-02-11T21:37:52.693Z,99.90
2019-02-11T21:40:21.249Z,99.90
2019-02-11T21:42:49.887Z,99.90
2019-02-11T21:45:18.431Z,99.90
2019-02-11T21:47:47.099Z,99.90
2019-02-11T21:50:26.059Z,99.90
2019-02-11T21:52:48.660Z,99.90
2019-02-11T21:55:23.035Z,99.90
2019-02-11T21:57:52.107Z,99.90
2019-02-11T22:00:24.285Z,99.90
2019-02-11T22:02:53.415Z,99.90
2019-02-11T22:05:21.968Z,99.90
2019-02-11T22:07:50.589Z,99.90
2019-02-11T22:10:23.118Z,99.90
2019-02-11T22:12:51.731Z,99.90
2019-02-11T22:15:21.399Z,99.90
2019-02-11T22:17:51.216Z,99.90
2019-02-11T22:20:21.047Z,99.90
2019-02-11T22:22:49.676Z,99.90
2019-02-11T22:25:18.414Z,99.90
2019-02-11T22:27:47.031Z,99.90
2019-02-11T22:30:17.955Z,99.90
2019-02-11T22:32:46.576Z,99.90
2019-02-11T22:35:15.157Z,99.90
2019-02-11T22:37:43.784Z,99.90
2019-02-11T22:40:14.205Z,99.90
2019-02-11T22:42:42.780Z,99.90
2019-02-11T22:45:14.040Z,99.90
2019-02-11T22:47:42.675Z,99.90
2019-02-11T22:50:12.869Z,99.90
2019-02-11T22:52:42.769Z,99.90
2019-02-11T22:55:15.283Z,99.90
2019-02-11T22:57:44.273Z,99.90
2019-02-11T23:00:31.851Z,99.90
2019-02-11T23:03:00.441Z,99.90
2019-02-11T23:05:30.020Z,99.90
2019-02-11T23:07:58.909Z,99.90
2019-02-11T23:10:27.448Z,99.90
2019-02-11T23:12:56.025Z,99.90
2019-02-11T23:15:24.684Z,99.90
2019-02-11T23:17:56.263Z,99.90
2019-02-11T23:20:25.296Z,99.90
2019-02-11T23:22:53.863Z,99.90
2019-02-11T23:25:22.433Z,99.90
2019-02-11T23:27:52.267Z,99.90
2019-02-11T23:30:21.571Z,99.90
2019-02-11T23:32:51.351Z,99.90
2019-02-11T23:35:20.275Z,99.90
2019-02-11T23:37:49.176Z,99.90
2019-02-11T23:40:17.752Z,99.90
2019-02-11T23:42:46.299Z,99.90
2019-02-11T23:45:16.507Z,99.90
2019-02-11T23:47:46.296Z,99.90
2019-02-11T23:50:15.028Z,99.90
2019-02-11T23:52:45.646Z,99.90
2019-02-11T23:55:14.188Z,99.80
2019-02-11T23:57:42.764Z,99.80
